createdAt,value
2022-08-05T00:01:20.562Z,8.40
2022-08-05T00:04:34.528Z,5.53
2022-08-05T00:08:00.853Z,6.47
2022-08-05T00:11:20.705Z,9.93
2022-08-05T00:14:36.429Z,5.23
2022-08-05T00:17:46.892Z,5.43
2022-08-05T00:20:54.650Z,5.90
2022-08-05T00:24:10.461Z,5.67
2022-08-05T00:27:17.072Z,7.30
2022-08-05T00:30:28.971Z,6.83
2022-08-05T00:34:53.261Z,7.67
2022-08-05T00:37:10.421Z,9.43
2022-08-05T00:40:27.018Z,8.70
2022-08-05T00:43:46.953Z,7.40
2022-08-05T00:46:53.931Z,7.97
2022-08-05T00:50:12.227Z,8.47
2022-08-05T00:54:00.253Z,6.83
2022-08-05T00:56:51.564Z,7.70
2022-08-05T00:59:57.823Z,6.20
2022-08-05T01:03:07.871Z,10.03
2022-08-05T01:06:17.037Z,6.27
2022-08-05T01:09:23.783Z,7.47
2022-08-05T01:12:34.158Z,8.33
2022-08-05T01:15:47.750Z,9.13
2022-08-05T01:18:57.624Z,8.33
2022-08-05T01:22:34.218Z,7.30
2022-08-05T01:26:03.896Z,7.57
2022-08-05T01:29:23.137Z,8.13
2022-08-05T01:32:35.211Z,7.47
2022-08-05T01:35:51.680Z,7.50
2022-08-05T01:39:01.373Z,7.50
2022-08-05T01:42:09.884Z,7.33
2022-08-05T01:45:19.899Z,11.83
2022-08-05T01:48:28.561Z,9.87
2022-08-05T01:51:36.927Z,8.53
2022-08-05T01:54:52.001Z,9.27
2022-08-05T01:58:12.461Z,8.93
2022-08-05T02:01:39.802Z,9.43
2022-08-05T02:04:49.521Z,10.77
2022-08-05T02:08:01.462Z,10.60
2022-08-05T02:11:11.972Z,9.23
2022-08-05T02:14:24.206Z,10.80
2022-08-05T02:18:30.601Z,11.37
2022-08-05T02:21:18.284Z,12.47
2022-08-05T02:24:30.934Z,14.67
2022-08-05T02:27:58.177Z,16.83
2022-08-05T02:31:14.594Z,16.17
2022-08-05T02:34:25.800Z,14.97
2022-08-05T02:37:39.936Z,12.50
2022-08-05T02:40:48.063Z,11.77
2022-08-05T02:44:02.337Z,11.67
2022-08-05T02:47:16.253Z,10.57
2022-08-05T02:50:26.241Z,13.47
2022-08-05T02:53:35.979Z,11.50
2022-08-05T02:56:47.029Z,10.47
2022-08-05T02:59:54.592Z,10.80
2022-08-05T03:03:03.378Z,11.07
2022-08-05T03:06:53.703Z,9.50
2022-08-05T03:09:51.615Z,12.03
2022-08-05T03:16:08.223Z,9.93
2022-08-05T03:19:20.231Z,8.27
2022-08-05T03:22:44.236Z,9.53
2022-08-05T03:26:04.831Z,8.00
2022-08-05T03:29:23.647Z,9.80
2022-08-05T03:32:31.447Z,8.10
2022-08-05T03:35:41.061Z,7.63
2022-08-05T03:38:53.203Z,10.27
2022-08-05T03:41:59.907Z,7.10
2022-08-05T03:45:22.744Z,8.63
2022-08-05T03:48:30.165Z,8.23
2022-08-05T03:52:49.028Z,8.97
2022-08-05T03:56:06.027Z,10.13
2022-08-05T03:58:47.950Z,7.70
2022-08-05T04:01:59.783Z,7.00
2022-08-05T04:05:11.492Z,7.37
2022-08-05T04:08:34.640Z,10.57
2022-08-05T04:11:50.939Z,6.83
2022-08-05T04:14:59.274Z,8.17
2022-08-05T04:18:12.753Z,8.77
2022-08-05T04:22:08.641Z,6.40
2022-08-05T04:24:55.437Z,6.17
2022-08-05T04:28:11.173Z,6.13
2022-08-05T04:31:19.803Z,7.37
2022-08-05T04:34:33.004Z,6.07
2022-08-05T04:38:02.127Z,5.83
2022-08-05T04:41:09.518Z,5.70
2022-08-05T04:44:21.194Z,5.67
2022-08-05T04:47:42.759Z,5.60
2022-08-05T04:51:02.754Z,5.93
2022-08-05T04:54:10.027Z,5.70
2022-08-05T04:57:18.822Z,7.40
2022-08-05T05:00:27.691Z,5.63
2022-08-05T05:03:42.252Z,5.77
2022-08-05T05:06:52.090Z,8.17
2022-08-05T05:10:06.671Z,6.70
2022-08-05T05:13:13.054Z,7.93
2022-08-05T05:16:23.103Z,8.60
2022-08-05T05:19:44.062Z,7.83
2022-08-05T05:22:51.240Z,8.07
2022-08-05T05:25:57.469Z,5.47
2022-08-05T05:29:14.257Z,9.87
2022-08-05T05:32:23.622Z,8.57
2022-08-05T05:35:34.443Z,6.83
2022-08-05T05:38:45.538Z,5.47
2022-08-05T05:41:54.519Z,5.53
2022-08-05T05:45:00.610Z,6.20
2022-08-05T05:48:15.960Z,6.10
2022-08-05T05:51:24.402Z,6.07
2022-08-05T05:54:35.488Z,7.00
2022-08-05T05:57:57.205Z,7.43
2022-08-05T06:01:13.299Z,12.53
2022-08-05T06:04:23.979Z,5.60
2022-08-05T06:07:41.851Z,6.43
2022-08-05T06:10:49.071Z,5.80
2022-08-05T06:14:00.379Z,5.43
2022-08-05T06:17:22.203Z,5.50
2022-08-05T06:20:33.752Z,5.18
2022-08-05T06:23:44.108Z,7.40
2022-08-05T06:26:53.144Z,5.65
2022-08-05T06:30:04.200Z,6.68
2022-08-05T06:33:19.083Z,5.70
2022-08-05T06:36:28.502Z,5.88
2022-08-05T06:39:55.153Z,5.68
2022-08-05T06:43:01.074Z,6.38
2022-08-05T06:46:08.773Z,19.95
2022-08-05T06:49:14.641Z,5.78
2022-08-05T06:52:36.824Z,5.47
2022-08-05T06:55:44.959Z,5.68
2022-08-05T06:58:53.190Z,5.43
2022-08-05T07:01:59.243Z,5.95
2022-08-05T07:05:15.361Z,5.18
2022-08-05T07:08:29.110Z,6.20
2022-08-05T07:11:39.704Z,6.43
2022-08-05T07:15:34.011Z,13.18
2022-08-05T07:18:47.695Z,7.28
2022-08-05T07:21:59.867Z,7.57
2022-08-05T07:25:22.525Z,5.70
2022-08-05T07:28:38.547Z,5.75
2022-08-05T07:31:54.477Z,7.18
2022-08-05T07:35:01.179Z,7.70
2022-08-05T07:38:33.562Z,6.63
2022-08-05T07:42:09.015Z,6.32
2022-08-05T07:45:11.643Z,6.72
2022-08-05T07:49:01.550Z,6.45
2022-08-05T07:51:54.243Z,6.07
2022-08-05T07:55:01.071Z,8.32
2022-08-05T07:58:17.595Z,6.13
2022-08-05T08:01:41.622Z,6.32
2022-08-05T08:05:00.144Z,6.00
2022-08-05T08:08:12.230Z,6.88
2022-08-05T08:11:19.274Z,7.03
2022-08-05T08:14:36.970Z,5.80
2022-08-05T08:17:52.465Z,5.30
2022-08-05T08:21:02.143Z,6.10
2022-08-05T08:24:13.547Z,7.70
2022-08-05T08:27:20.582Z,11.80
2022-08-05T08:30:37.728Z,8.45
2022-08-05T08:33:53.843Z,9.95
2022-08-05T08:37:04.788Z,9.38
2022-08-05T08:40:12.225Z,5.80
2022-08-05T08:45:23.704Z,15.32
2022-08-05T08:46:51.490Z,10.52
2022-08-05T08:50:05.915Z,8.13
2022-08-05T08:53:28.899Z,6.15
2022-08-05T08:56:36.229Z,4.95
2022-08-05T08:59:54.021Z,6.32
2022-08-05T09:03:08.634Z,5.40
2022-08-05T09:06:18.640Z,5.15
2022-08-05T09:09:34.608Z,5.97
2022-08-05T09:12:42.141Z,6.82
2022-08-05T09:15:49.539Z,7.60
2022-08-05T09:18:59.429Z,6.53
2022-08-05T09:22:22.594Z,11.35
2022-08-05T09:26:00.969Z,5.93
2022-08-05T09:29:05.004Z,11.88
2022-08-05T09:32:40.966Z,4.90
2022-08-05T09:35:55.897Z,4.28
2022-08-05T09:39:03.701Z,9.57
2022-08-05T09:42:28.463Z,5.40
2022-08-05T09:46:07.801Z,7.60
2022-08-05T09:50:00.780Z,8.95
2022-08-05T09:53:01.313Z,4.38
2022-08-05T09:56:12.847Z,4.32
2022-08-05T09:59:19.451Z,5.55
2022-08-05T10:02:34.740Z,4.65
2022-08-05T10:05:42.144Z,6.07
2022-08-05T10:08:55.339Z,5.97
2022-08-05T10:12:18.543Z,7.70
2022-08-05T10:15:41.416Z,9.32
2022-08-05T10:18:48.322Z,5.35
2022-08-05T10:21:55.287Z,11.73
2022-08-05T10:25:04.044Z,6.07
2022-08-05T10:28:17.520Z,6.63
2022-08-05T10:32:55.161Z,5.18
2022-08-05T10:35:03.490Z,7.15
2022-08-05T10:38:11.762Z,7.95
2022-08-05T10:41:46.436Z,7.00
2022-08-05T10:44:54.014Z,4.43
2022-08-05T10:48:29.717Z,5.18
2022-08-05T10:51:29.047Z,11.48
2022-08-05T10:55:06.445Z,7.45
2022-08-05T10:58:17.992Z,5.93
2022-08-05T11:01:55.522Z,6.88
2022-08-05T11:04:58.980Z,11.18
2022-08-05T11:08:33.633Z,11.13
2022-08-05T11:11:44.915Z,6.40
2022-08-05T11:15:20.134Z,4.68
2022-08-05T11:18:32.508Z,7.03
2022-08-05T11:21:49.559Z,4.80
2022-08-05T11:26:04.418Z,5.75
2022-08-05T11:29:12.789Z,5.15
2022-08-05T11:32:35.046Z,4.40
2022-08-05T11:36:04.510Z,5.32
2022-08-05T11:39:15.201Z,6.15
2022-08-05T11:42:28.401Z,5.70
2022-08-05T11:46:14.914Z,5.97
2022-08-05T11:49:06.290Z,6.53
2022-08-05T11:52:14.508Z,4.95
2022-08-05T11:55:22.022Z,4.72
2022-08-05T11:58:41.563Z,5.35
2022-08-05T12:02:03.283Z,4.80
2022-08-05T12:05:36.147Z,4.93
2022-08-05T12:08:50.870Z,8.00
2022-08-05T12:11:57.657Z,6.50
2022-08-05T12:15:11.965Z,6.03
2022-08-05T12:18:24.324Z,4.80
2022-08-05T12:21:39.373Z,5.60
2022-08-05T12:24:49.751Z,3.88
2022-08-05T12:28:06.619Z,4.35
2022-08-05T12:31:42.511Z,4.80
2022-08-05T12:34:53.324Z,4.60
2022-08-05T12:38:03.090Z,5.93
2022-08-05T12:41:16.054Z,7.85
2022-08-05T12:44:33.585Z,4.47
2022-08-05T12:48:01.464Z,4.20
2022-08-05T12:51:21.912Z,9.70
2022-08-05T12:54:50.580Z,3.95
2022-08-05T12:58:50.396Z,4.45
2022-08-05T13:02:03.020Z,4.28
2022-08-05T13:04:54.744Z,4.82
2022-08-05T13:08:08.781Z,4.82
2022-08-05T13:11:46.937Z,6.32
2022-08-05T13:15:05.762Z,6.75
2022-08-05T13:18:19.659Z,5.38
2022-08-05T13:21:28.311Z,4.95
2022-08-05T13:24:57.257Z,8.30
2022-08-05T13:28:08.140Z,4.47
2022-08-05T13:31:17.112Z,5.25
2022-08-05T13:34:40.972Z,5.63
2022-08-05T13:37:47.699Z,4.05
2022-08-05T13:41:03.449Z,5.45
2022-08-05T13:44:12.341Z,4.13
2022-08-05T13:47:34.876Z,4.28
2022-08-05T13:50:41.291Z,4.60
2022-08-05T13:53:51.556Z,3.72
2022-08-05T13:57:03.927Z,6.20
2022-08-05T14:00:17.446Z,4.00
2022-08-05T14:03:23.846Z,3.70
2022-08-05T14:06:30.874Z,3.88
2022-08-05T14:09:37.904Z,6.60
2022-08-05T14:12:54.612Z,5.00
2022-08-05T14:16:06.971Z,3.45
2022-08-05T14:19:16.703Z,5.93
2022-08-05T14:22:23.902Z,3.88
2022-08-05T14:25:37.573Z,4.95
2022-08-05T14:28:52.153Z,3.22
2022-08-05T14:32:15.826Z,5.57
2022-08-05T14:35:23.573Z,3.45
2022-08-05T14:38:44.606Z,3.50
2022-08-05T14:42:15.981Z,3.35
2022-08-05T14:45:17.865Z,3.22
2022-08-05T14:48:33.643Z,5.20
2022-08-05T14:51:43.213Z,2.83
2022-08-05T14:54:52.979Z,5.60
2022-08-05T14:58:03.454Z,3.47
2022-08-05T15:01:21.354Z,3.83
2022-08-05T15:04:34.326Z,5.60
2022-08-05T15:08:06.697Z,3.75
2022-08-05T15:11:09.652Z,5.25
2022-08-05T15:14:33.274Z,4.63
2022-08-05T15:17:46.789Z,3.17
2022-08-05T15:21:07.711Z,3.85
2022-08-05T15:24:15.201Z,3.55
2022-08-05T15:27:25.792Z,3.70
2022-08-05T15:30:35.031Z,3.30
2022-08-05T15:33:56.940Z,9.75
2022-08-05T15:37:14.686Z,3.20
2022-08-05T15:40:59.063Z,6.60
2022-08-05T15:43:48.581Z,3.70
2022-08-05T15:46:55.643Z,5.50
2022-08-05T15:50:03.250Z,4.13
2022-08-05T15:53:12.894Z,3.20
2022-08-05T15:56:19.858Z,3.00
2022-08-05T15:59:26.239Z,4.07
2022-08-05T16:02:36.415Z,3.80
2022-08-05T16:05:42.679Z,3.70
2022-08-05T16:08:55.252Z,3.45
2022-08-05T16:12:03.104Z,6.00
2022-08-05T16:15:10.629Z,5.15
2022-08-05T16:18:28.069Z,3.70
2022-08-05T16:22:00.045Z,3.35
2022-08-05T16:25:09.394Z,5.10
2022-08-05T16:28:16.844Z,5.28
2022-08-05T16:31:22.978Z,2.97
2022-08-05T16:34:31.054Z,5.68
2022-08-05T16:38:13.676Z,3.50
2022-08-05T16:42:24.161Z,3.80
2022-08-05T16:44:35.917Z,4.38
2022-08-05T16:47:53.592Z,3.67
2022-08-05T16:51:08.789Z,6.18
2022-08-05T16:54:25.803Z,3.20
2022-08-05T16:57:42.969Z,3.83
2022-08-05T17:01:06.606Z,3.42
2022-08-05T17:04:16.380Z,5.65
2022-08-05T17:07:39.165Z,4.95
2022-08-05T17:10:45.445Z,3.97
2022-08-05T17:14:05.263Z,5.68
2022-08-05T17:17:14.940Z,3.28
2022-08-05T17:20:22.049Z,4.88
2022-08-05T17:24:03.597Z,4.80
2022-08-05T17:26:55.525Z,12.32
2022-08-05T17:30:07.070Z,4.45
2022-08-05T17:33:19.987Z,4.60
2022-08-05T17:36:33.748Z,3.78
2022-08-05T17:39:43.776Z,3.60
2022-08-05T17:42:51.088Z,3.85
2022-08-05T17:46:03.055Z,6.15
2022-08-05T17:49:10.510Z,4.95
2022-08-05T17:52:18.679Z,4.43
2022-08-05T17:55:27.261Z,4.43
2022-08-05T17:58:41.665Z,4.15
2022-08-05T18:01:50.701Z,4.25
2022-08-05T18:04:57.431Z,4.22
2022-08-05T18:08:06.106Z,4.28
2022-08-05T18:11:23.180Z,4.07
2022-08-05T18:14:30.902Z,5.40
2022-08-05T18:18:00.240Z,4.22
2022-08-05T18:21:13.224Z,3.85
2022-08-05T18:24:26.559Z,4.75
2022-08-05T18:27:34.175Z,4.10
2022-08-05T18:30:44.246Z,9.75
2022-08-05T18:33:54.017Z,4.60
2022-08-05T18:37:03.514Z,5.00
2022-08-05T18:40:34.094Z,4.82
2022-08-05T18:43:49.149Z,5.03
2022-08-05T18:46:55.229Z,5.30
2022-08-05T18:53:43.115Z,5.03
2022-08-05T18:56:57.211Z,5.60
2022-08-05T19:00:10.379Z,5.72
2022-08-05T19:03:53.309Z,6.57
2022-08-05T19:06:56.011Z,6.88
2022-08-05T19:10:04.519Z,5.93
2022-08-05T19:13:16.759Z,5.70
2022-08-05T19:16:28.611Z,6.00
2022-08-05T19:19:36.056Z,9.98
2022-08-05T19:22:54.117Z,6.20
2022-08-05T19:26:01.617Z,7.75
2022-08-05T19:29:09.746Z,8.23
2022-08-05T19:32:15.596Z,6.35
2022-08-05T19:35:23.047Z,6.90
2022-08-05T19:38:32.115Z,6.50
2022-08-05T19:42:06.077Z,6.03
2022-08-05T19:45:06.619Z,6.22
2022-08-05T19:48:14.548Z,6.30
2022-08-05T19:51:31.253Z,6.80
2022-08-05T19:54:50.935Z,7.35
2022-08-05T19:58:14.247Z,7.38
2022-08-05T20:01:28.315Z,6.03
2022-08-05T20:04:34.747Z,6.45
2022-08-05T20:07:48.583Z,6.57
2022-08-05T20:10:58.245Z,6.43
2022-08-05T20:14:12.316Z,6.78
2022-08-05T20:17:23.175Z,6.25
2022-08-05T20:20:31.278Z,6.78
2022-08-05T20:23:51.076Z,6.50
2022-08-05T20:27:03.868Z,6.20
2022-08-05T20:30:19.638Z,6.22
2022-08-05T20:33:26.799Z,6.38
2022-08-05T20:36:36.911Z,6.88
2022-08-05T20:39:51.598Z,5.65
2022-08-05T20:43:00.716Z,7.45
2022-08-05T20:46:10.398Z,6.55
2022-08-05T20:49:25.954Z,7.15
2022-08-05T20:52:34.050Z,8.30
2022-08-05T20:55:56.503Z,8.15
2022-08-05T20:59:18.915Z,10.45
2022-08-05T21:02:26.793Z,8.73
2022-08-05T21:05:38.319Z,7.13
2022-08-05T21:09:00.284Z,8.90
2022-08-05T21:12:11.831Z,8.40
2022-08-05T21:15:21.095Z,10.90
2022-08-05T21:18:28.163Z,8.60
2022-08-05T21:21:39.196Z,10.18
2022-08-05T21:24:51.880Z,10.80
2022-08-05T21:27:58.347Z,8.57
2022-08-05T21:31:09.653Z,10.98
2022-08-05T21:34:18.977Z,9.07
2022-08-05T21:37:26.844Z,10.30
2022-08-05T21:40:33.009Z,9.65
2022-08-05T21:43:41.728Z,9.43
2022-08-05T21:46:50.711Z,10.05
2022-08-05T21:50:01.105Z,10.23
2022-08-05T21:53:17.469Z,11.10
2022-08-05T21:56:24.465Z,11.43
2022-08-05T21:59:48.074Z,11.20
2022-08-05T22:03:03.047Z,10.73
2022-08-05T22:06:09.590Z,10.70
2022-08-05T22:09:21.180Z,11.43
2022-08-05T22:12:28.219Z,11.10
2022-08-05T22:16:02.036Z,11.27
2022-08-05T22:19:57.214Z,10.57
2022-08-05T22:22:53.645Z,10.63
2022-08-05T22:26:16.954Z,11.57
2022-08-05T22:29:26.277Z,14.05
2022-08-05T22:32:32.946Z,11.60
2022-08-05T22:35:48.566Z,11.35
2022-08-05T22:38:55.498Z,13.82
2022-08-05T22:42:09.898Z,11.63
2022-08-05T22:45:17.804Z,11.88
2022-08-05T22:48:27.193Z,10.73
2022-08-05T22:52:05.805Z,11.70
2022-08-05T22:55:04.296Z,12.15
2022-08-05T22:58:28.225Z,11.85
2022-08-05T23:01:50.907Z,10.88
2022-08-05T23:05:05.021Z,11.38
2022-08-05T23:08:15.466Z,12.32
2022-08-05T23:11:21.398Z,11.68
2022-08-05T23:14:32.440Z,11.77
2022-08-05T23:18:01.458Z,10.60
2022-08-05T23:21:06.485Z,11.82
2022-08-05T23:24:19.044Z,12.25
2022-08-05T23:27:31.194Z,16.42
2022-08-05T23:30:40.393Z,11.13
2022-08-05T23:34:05.140Z,12.85
2022-08-05T23:37:12.472Z,12.50
2022-08-05T23:40:27.114Z,12.57
2022-08-05T23:44:03.203Z,11.50
2022-08-05T23:47:00.493Z,13.30
2022-08-05T23:50:09.995Z,11.45
2022-08-05T23:53:22.723Z,13.25
2022-08-05T23:56:32.049Z,13.07
